sensor_id;sensor_type;location;lat;lon;timestamp;temperature;humidity
69944;DHT22;57257;48.408;-4.498;2023-04-24T00:01:21;11.85;63.96
69944;DHT22;57257;48.408;-4.498;2023-04-24T00:03:46;11.85;63.89
69944;DHT22;57257;48.408;-4.498;2023-04-24T00:06:12;11.78;64.08
69944;DHT22;57257;48.408;-4.498;2023-04-24T00:08:37;11.79;64.30
69944;DHT22;57257;48.408;-4.498;2023-04-24T00:11:03;11.75;64.35
69944;DHT22;57257;48.408;-4.498;2023-04-24T00:13:29;11.75;64.42
69944;DHT22;57257;48.408;-4.498;2023-04-24T00:15:55;11.78;64.36
69944;DHT22;57257;48.408;-4.498;2023-04-24T00:18:20;11.78;64.36
69944;DHT22;57257;48.408;-4.498;2023-04-24T00:20:46;11.76;64.19
69944;DHT22;57257;48.408;-4.498;2023-04-24T00:23:12;11.78;64.13
69944;DHT22;57257;48.408;-4.498;2023-04-24T00:25:38;11.73;64.28
69944;DHT22;57257;48.408;-4.498;2023-04-24T00:28:04;11.73;64.36
69944;DHT22;57257;48.408;-4.498;2023-04-24T00:30:29;11.72;64.38
69944;DHT22;57257;48.408;-4.498;2023-04-24T00:32:55;11.70;64.65
69944;DHT22;57257;48.408;-4.498;2023-04-24T00:35:20;11.69;64.64
69944;DHT22;57257;48.408;-4.498;2023-04-24T00:37:46;11.69;64.68
69944;DHT22;57257;48.408;-4.498;2023-04-24T00:40:11;11.63;64.66
69944;DHT22;57257;48.408;-4.498;2023-04-24T00:42:37;11.59;64.79
69944;DHT22;57257;48.408;-4.498;2023-04-24T00:45:04;11.55;64.93
69944;DHT22;57257;48.408;-4.498;2023-04-24T00:47:30;11.49;64.97
69944;DHT22;57257;48.408;-4.498;2023-04-24T00:49:56;11.43;65.14
69944;DHT22;57257;48.408;-4.498;2023-04-24T00:52:21;11.42;65.31
69944;DHT22;57257;48.408;-4.498;2023-04-24T00:54:49;11.43;65.23
69944;DHT22;57257;48.408;-4.498;2023-04-24T00:57:15;11.43;65.21
69944;DHT22;57257;48.408;-4.498;2023-04-24T00:59:42;11.43;65.22
69944;DHT22;57257;48.408;-4.498;2023-04-24T01:02:08;11.51;65.23
69944;DHT22;57257;48.408;-4.498;2023-04-24T01:04:35;11.49;65.20
69944;DHT22;57257;48.408;-4.498;2023-04-24T01:07:01;11.48;65.14
69944;DHT22;57257;48.408;-4.498;2023-04-24T01:09:26;11.49;65.37
69944;DHT22;57257;48.408;-4.498;2023-04-24T01:11:52;11.52;65.32
69944;DHT22;57257;48.408;-4.498;2023-04-24T01:14:18;11.52;65.41
69944;DHT22;57257;48.408;-4.498;2023-04-24T01:16:43;11.43;65.60
69944;DHT22;57257;48.408;-4.498;2023-04-24T01:19:10;11.40;65.67
69944;DHT22;57257;48.408;-4.498;2023-04-24T01:21:37;11.40;65.60
69944;DHT22;57257;48.408;-4.498;2023-04-24T01:24:05;11.39;65.63
69944;DHT22;57257;48.408;-4.498;2023-04-24T01:26:31;11.36;65.68
69944;DHT22;57257;48.408;-4.498;2023-04-24T01:28:57;11.35;65.80
69944;DHT22;57257;48.408;-4.498;2023-04-24T01:31:22;11.31;65.85
69944;DHT22;57257;48.408;-4.498;2023-04-24T01:33:49;11.32;65.82
69944;DHT22;57257;48.408;-4.498;2023-04-24T01:36:16;11.26;65.97
69944;DHT22;57257;48.408;-4.498;2023-04-24T01:38:42;11.28;66.07
69944;DHT22;57257;48.408;-4.498;2023-04-24T01:41:07;11.26;66.10
69944;DHT22;57257;48.408;-4.498;2023-04-24T01:43:33;11.34;66.26
69944;DHT22;57257;48.408;-4.498;2023-04-24T01:45:58;11.32;66.36
69944;DHT22;57257;48.408;-4.498;2023-04-24T01:48:24;11.38;66.34
69944;DHT22;57257;48.408;-4.498;2023-04-24T01:50:49;11.40;66.05
69944;DHT22;57257;48.408;-4.498;2023-04-24T01:53:15;11.40;66.18
69944;DHT22;57257;48.408;-4.498;2023-04-24T01:55:41;11.40;66.36
69944;DHT22;57257;48.408;-4.498;2023-04-24T01:58:06;11.42;66.29
69944;DHT22;57257;48.408;-4.498;2023-04-24T02:00:32;11.42;66.17
69944;DHT22;57257;48.408;-4.498;2023-04-24T02:02:57;11.42;66.08
69944;DHT22;57257;48.408;-4.498;2023-04-24T02:05:22;11.40;66.29
69944;DHT22;57257;48.408;-4.498;2023-04-24T02:07:48;11.39;66.40
69944;DHT22;57257;48.408;-4.498;2023-04-24T02:10:13;11.40;66.45
69944;DHT22;57257;48.408;-4.498;2023-04-24T02:12:39;11.38;66.62
69944;DHT22;57257;48.408;-4.498;2023-04-24T02:15:05;11.34;66.57
69944;DHT22;57257;48.408;-4.498;2023-04-24T02:17:30;11.38;66.59
69944;DHT22;57257;48.408;-4.498;2023-04-24T02:19:56;11.32;66.67
69944;DHT22;57257;48.408;-4.498;2023-04-24T02:22:21;11.35;66.63
69944;DHT22;57257;48.408;-4.498;2023-04-24T02:24:47;11.34;66.67
69944;DHT22;57257;48.408;-4.498;2023-04-24T02:27:12;11.34;66.69
69944;DHT22;57257;48.408;-4.498;2023-04-24T02:29:38;11.32;66.77
69944;DHT22;57257;48.408;-4.498;2023-04-24T02:32:03;11.32;66.71
69944;DHT22;57257;48.408;-4.498;2023-04-24T02:34:29;11.29;66.75
69944;DHT22;57257;48.408;-4.498;2023-04-24T02:36:54;11.25;66.81
69944;DHT22;57257;48.408;-4.498;2023-04-24T02:39:20;11.22;66.90
69944;DHT22;57257;48.408;-4.498;2023-04-24T02:41:45;11.22;67.01
69944;DHT22;57257;48.408;-4.498;2023-04-24T02:44:11;11.21;66.97
69944;DHT22;57257;48.408;-4.498;2023-04-24T02:46:36;11.22;66.97
69944;DHT22;57257;48.408;-4.498;2023-04-24T02:49:02;11.18;66.91
69944;DHT22;57257;48.408;-4.498;2023-04-24T02:51:27;11.18;66.85
69944;DHT22;57257;48.408;-4.498;2023-04-24T02:53:53;11.18;66.77
69944;DHT22;57257;48.408;-4.498;2023-04-24T02:56:18;11.18;66.86
69944;DHT22;57257;48.408;-4.498;2023-04-24T02:58:44;11.15;66.80
69944;DHT22;57257;48.408;-4.498;2023-04-24T03:01:10;11.11;66.83
69944;DHT22;57257;48.408;-4.498;2023-04-24T03:03:36;11.11;66.95
69944;DHT22;57257;48.408;-4.498;2023-04-24T03:06:02;11.10;66.96
69944;DHT22;57257;48.408;-4.498;2023-04-24T03:08:28;11.10;66.81
69944;DHT22;57257;48.408;-4.498;2023-04-24T03:10:53;11.10;66.85
69944;DHT22;57257;48.408;-4.498;2023-04-24T03:13:18;11.10;66.92
69944;DHT22;57257;48.408;-4.498;2023-04-24T03:15:44;11.10;66.94
69944;DHT22;57257;48.408;-4.498;2023-04-24T03:18:11;11.10;66.85
69944;DHT22;57257;48.408;-4.498;2023-04-24T03:20:36;11.12;66.93
69944;DHT22;57257;48.408;-4.498;2023-04-24T03:23:02;11.12;66.96
69944;DHT22;57257;48.408;-4.498;2023-04-24T03:25:28;11.12;66.92
69944;DHT22;57257;48.408;-4.498;2023-04-24T03:27:53;11.15;67.02
69944;DHT22;57257;48.408;-4.498;2023-04-24T03:30:20;11.19;66.94
69944;DHT22;57257;48.408;-4.498;2023-04-24T03:32:45;11.22;67.05
69944;DHT22;57257;48.408;-4.498;2023-04-24T03:35:10;11.22;67.11
69944;DHT22;57257;48.408;-4.498;2023-04-24T03:37:36;11.26;67.10
69944;DHT22;57257;48.408;-4.498;2023-04-24T03:40:02;11.28;67.04
69944;DHT22;57257;48.408;-4.498;2023-04-24T03:42:27;11.29;66.98
69944;DHT22;57257;48.408;-4.498;2023-04-24T03:44:53;11.31;67.08
69944;DHT22;57257;48.408;-4.498;2023-04-24T03:47:18;11.35;67.12
69944;DHT22;57257;48.408;-4.498;2023-04-24T03:49:44;11.32;67.18
69944;DHT22;57257;48.408;-4.498;2023-04-24T03:52:09;11.38;67.09
69944;DHT22;57257;48.408;-4.498;2023-04-24T03:54:35;11.40;67.18
69944;DHT22;57257;48.408;-4.498;2023-04-24T03:57:00;11.42;67.12
69944;DHT22;57257;48.408;-4.498;2023-04-24T03:59:26;11.40;67.12
69944;DHT22;57257;48.408;-4.498;2023-04-24T04:01:52;11.40;67.20
69944;DHT22;57257;48.408;-4.498;2023-04-24T04:04:17;11.40;67.24
69944;DHT22;57257;48.408;-4.498;2023-04-24T04:06:43;11.39;67.09
69944;DHT22;57257;48.408;-4.498;2023-04-24T04:09:09;11.38;66.96
69944;DHT22;57257;48.408;-4.498;2023-04-24T04:11:35;11.34;67.07
69944;DHT22;57257;48.408;-4.498;2023-04-24T04:14:01;11.32;67.25
69944;DHT22;57257;48.408;-4.498;2023-04-24T04:16:26;11.32;67.31
69944;DHT22;57257;48.408;-4.498;2023-04-24T04:18:51;11.29;67.33
69944;DHT22;57257;48.408;-4.498;2023-04-24T04:21:17;11.32;67.15
69944;DHT22;57257;48.408;-4.498;2023-04-24T04:23:42;11.29;67.22
69944;DHT22;57257;48.408;-4.498;2023-04-24T04:26:08;11.28;67.34
69944;DHT22;57257;48.408;-4.498;2023-04-24T04:28:33;11.26;67.21
69944;DHT22;57257;48.408;-4.498;2023-04-24T04:31:00;11.28;67.21
69944;DHT22;57257;48.408;-4.498;2023-04-24T04:33:26;11.25;67.34
69944;DHT22;57257;48.408;-4.498;2023-04-24T04:35:52;11.25;67.29
69944;DHT22;57257;48.408;-4.498;2023-04-24T04:38:18;11.25;67.13
69944;DHT22;57257;48.408;-4.498;2023-04-24T04:40:45;11.21;67.27
69944;DHT22;57257;48.408;-4.498;2023-04-24T04:43:11;11.19;67.16
69944;DHT22;57257;48.408;-4.498;2023-04-24T04:45:38;11.21;67.20
69944;DHT22;57257;48.408;-4.498;2023-04-24T04:48:04;11.16;67.27
69944;DHT22;57257;48.408;-4.498;2023-04-24T04:50:32;11.14;67.35
69944;DHT22;57257;48.408;-4.498;2023-04-24T04:52:58;11.15;67.32
69944;DHT22;57257;48.408;-4.498;2023-04-24T04:55:23;11.11;67.30
69944;DHT22;57257;48.408;-4.498;2023-04-24T04:57:48;11.08;67.42
69944;DHT22;57257;48.408;-4.498;2023-04-24T05:00:14;11.08;67.42
69944;DHT22;57257;48.408;-4.498;2023-04-24T05:02:41;11.08;67.29
69944;DHT22;57257;48.408;-4.498;2023-04-24T05:05:06;11.10;67.28
69944;DHT22;57257;48.408;-4.498;2023-04-24T05:07:32;11.08;67.39
69944;DHT22;57257;48.408;-4.498;2023-04-24T05:09:58;11.14;67.19
69944;DHT22;57257;48.408;-4.498;2023-04-24T05:12:23;11.14;67.20
69944;DHT22;57257;48.408;-4.498;2023-04-24T05:14:49;11.15;67.27
69944;DHT22;57257;48.408;-4.498;2023-04-24T05:17:15;11.18;67.26
69944;DHT22;57257;48.408;-4.498;2023-04-24T05:19:40;11.18;67.22
69944;DHT22;57257;48.408;-4.498;2023-04-24T05:22:06;11.22;67.22
69944;DHT22;57257;48.408;-4.498;2023-04-24T05:24:35;11.26;67.20
69944;DHT22;57257;48.408;-4.498;2023-04-24T05:27:02;11.32;67.29
69944;DHT22;57257;48.408;-4.498;2023-04-24T05:29:28;11.39;67.33
69944;DHT22;57257;48.408;-4.498;2023-04-24T05:31:56;11.45;67.35
69944;DHT22;57257;48.408;-4.498;2023-04-24T05:34:21;11.56;67.27
69944;DHT22;57257;48.408;-4.498;2023-04-24T05:36:46;11.68;67.25
69944;DHT22;57257;48.408;-4.498;2023-04-24T05:39:12;11.79;67.16
69944;DHT22;57257;48.408;-4.498;2023-04-24T05:41:38;11.94;67.05
69944;DHT22;57257;48.408;-4.498;2023-04-24T05:44:03;12.04;66.79
69944;DHT22;57257;48.408;-4.498;2023-04-24T05:46:28;12.04;66.67
69944;DHT22;57257;48.408;-4.498;2023-04-24T05:48:54;12.07;66.71
69944;DHT22;57257;48.408;-4.498;2023-04-24T05:51:19;12.10;66.65
69944;DHT22;57257;48.408;-4.498;2023-04-24T05:53:45;12.07;66.53
69944;DHT22;57257;48.408;-4.498;2023-04-24T05:56:11;12.12;66.36
69944;DHT22;57257;48.408;-4.498;2023-04-24T05:58:36;12.10;66.40
69944;DHT22;57257;48.408;-4.498;2023-04-24T06:01:03;12.10;66.53
69944;DHT22;57257;48.408;-4.498;2023-04-24T06:03:28;12.13;66.56
69944;DHT22;57257;48.408;-4.498;2023-04-24T06:05:54;12.17;66.58
69944;DHT22;57257;48.408;-4.498;2023-04-24T06:08:19;12.19;66.53
69944;DHT22;57257;48.408;-4.498;2023-04-24T06:10:45;12.22;66.52
69944;DHT22;57257;48.408;-4.498;2023-04-24T06:13:10;12.22;66.40
69944;DHT22;57257;48.408;-4.498;2023-04-24T06:15:36;12.27;66.37
69944;DHT22;57257;48.408;-4.498;2023-04-24T06:18:02;12.34;66.30
69944;DHT22;57257;48.408;-4.498;2023-04-24T06:20:28;12.41;66.21
69944;DHT22;57257;48.408;-4.498;2023-04-24T06:22:54;12.43;66.16
69944;DHT22;57257;48.408;-4.498;2023-04-24T06:25:19;12.47;66.14
69944;DHT22;57257;48.408;-4.498;2023-04-24T06:27:45;12.48;66.15
69944;DHT22;57257;48.408;-4.498;2023-04-24T06:30:11;12.51;66.18
69944;DHT22;57257;48.408;-4.498;2023-04-24T06:32:37;12.55;66.09
69944;DHT22;57257;48.408;-4.498;2023-04-24T06:35:02;12.63;66.14
69944;DHT22;57257;48.408;-4.498;2023-04-24T06:37:28;12.68;66.05
69944;DHT22;57257;48.408;-4.498;2023-04-24T06:39:53;12.69;65.98
69944;DHT22;57257;48.408;-4.498;2023-04-24T06:42:19;12.77;66.10
69944;DHT22;57257;48.408;-4.498;2023-04-24T06:44:46;12.81;66.15
69944;DHT22;57257;48.408;-4.498;2023-04-24T06:47:11;12.87;66.04
69944;DHT22;57257;48.408;-4.498;2023-04-24T06:49:39;12.87;65.92
69944;DHT22;57257;48.408;-4.498;2023-04-24T06:52:05;12.92;65.92
69944;DHT22;57257;48.408;-4.498;2023-04-24T06:54:31;12.94;65.90
69944;DHT22;57257;48.408;-4.498;2023-04-24T06:56:58;12.98;65.96
69944;DHT22;57257;48.408;-4.498;2023-04-24T06:59:24;13.02;65.95
69944;DHT22;57257;48.408;-4.498;2023-04-24T07:01:50;13.11;66.07
69944;DHT22;57257;48.408;-4.498;2023-04-24T07:04:16;13.20;65.88
69944;DHT22;57257;48.408;-4.498;2023-04-24T07:06:42;13.26;65.84
69944;DHT22;57257;48.408;-4.498;2023-04-24T07:09:08;13.38;65.92
69944;DHT22;57257;48.408;-4.498;2023-04-24T07:11:34;13.55;65.83
69944;DHT22;57257;48.408;-4.498;2023-04-24T07:14:01;13.70;65.67
69944;DHT22;57257;48.408;-4.498;2023-04-24T07:16:27;13.86;65.36
69944;DHT22;57257;48.408;-4.498;2023-04-24T07:18:53;13.89;65.15
69944;DHT22;57257;48.408;-4.498;2023-04-24T07:21:18;13.91;65.13
69944;DHT22;57257;48.408;-4.498;2023-04-24T07:23:44;14.00;65.29
69944;DHT22;57257;48.408;-4.498;2023-04-24T07:26:09;14.09;65.19
69944;DHT22;57257;48.408;-4.498;2023-04-24T07:28:35;14.14;65.06
69944;DHT22;57257;48.408;-4.498;2023-04-24T07:31:00;14.18;65.08
69944;DHT22;57257;48.408;-4.498;2023-04-24T07:33:26;14.24;65.15
69944;DHT22;57257;48.408;-4.498;2023-04-24T07:35:52;14.24;65.23
69944;DHT22;57257;48.408;-4.498;2023-04-24T07:38:18;14.42;65.38
69944;DHT22;57257;48.408;-4.498;2023-04-24T07:40:47;14.60;65.13
69944;DHT22;57257;48.408;-4.498;2023-04-24T07:43:12;14.74;65.05
69944;DHT22;57257;48.408;-4.498;2023-04-24T07:45:38;15.01;64.73
69944;DHT22;57257;48.408;-4.498;2023-04-24T07:48:04;15.19;64.25
69944;DHT22;57257;48.408;-4.498;2023-04-24T07:50:30;15.29;64.25
69944;DHT22;57257;48.408;-4.498;2023-04-24T07:52:56;15.29;64.12
69944;DHT22;57257;48.408;-4.498;2023-04-24T07:55:21;15.23;63.92
69944;DHT22;57257;48.408;-4.498;2023-04-24T07:57:46;15.18;63.92
69944;DHT22;57257;48.408;-4.498;2023-04-24T08:00:12;15.06;63.94
69944;DHT22;57257;48.408;-4.498;2023-04-24T08:02:38;15.01;64.22
69944;DHT22;57257;48.408;-4.498;2023-04-24T08:05:05;15.01;64.45
69944;DHT22;57257;48.408;-4.498;2023-04-24T08:07:31;15.08;64.51
69944;DHT22;57257;48.408;-4.498;2023-04-24T08:09:57;15.13;64.45
69944;DHT22;57257;48.408;-4.498;2023-04-24T08:12:22;15.19;64.32
69944;DHT22;57257;48.408;-4.498;2023-04-24T08:14:47;15.23;64.16
69944;DHT22;57257;48.408;-4.498;2023-04-24T08:17:13;15.19;64.19
69944;DHT22;57257;48.408;-4.498;2023-04-24T08:19:40;15.19;64.23
69944;DHT22;57257;48.408;-4.498;2023-04-24T08:22:08;15.25;63.94
69944;DHT22;57257;48.408;-4.498;2023-04-24T08:24:33;15.28;63.61
69944;DHT22;57257;48.408;-4.498;2023-04-24T08:26:59;15.30;63.43
69944;DHT22;57257;48.408;-4.498;2023-04-24T08:29:24;15.36;63.00
69944;DHT22;57257;48.408;-4.498;2023-04-24T08:31:50;15.57;62.74
69944;DHT22;57257;48.408;-4.498;2023-04-24T08:34:15;15.89;61.90
69944;DHT22;57257;48.408;-4.498;2023-04-24T08:36:41;16.24;61.19
69944;DHT22;57257;48.408;-4.498;2023-04-24T08:39:06;16.54;60.75
69944;DHT22;57257;48.408;-4.498;2023-04-24T08:41:34;16.71;59.90
69944;DHT22;57257;48.408;-4.498;2023-04-24T08:44:01;16.72;59.01
69944;DHT22;57257;48.408;-4.498;2023-04-24T08:46:27;16.61;58.60
69944;DHT22;57257;48.408;-4.498;2023-04-24T08:48:54;16.41;57.13
69944;DHT22;57257;48.408;-4.498;2023-04-24T08:51:20;16.32;57.39
69944;DHT22;57257;48.408;-4.498;2023-04-24T08:53:46;16.22;57.66
69944;DHT22;57257;48.408;-4.498;2023-04-24T08:56:12;16.22;57.86
69944;DHT22;57257;48.408;-4.498;2023-04-24T08:58:38;16.22;57.78
69944;DHT22;57257;48.408;-4.498;2023-04-24T09:01:04;16.21;58.14
69944;DHT22;57257;48.408;-4.498;2023-04-24T09:03:31;16.24;58.00
69944;DHT22;57257;48.408;-4.498;2023-04-24T09:05:57;16.27;58.33
69944;DHT22;57257;48.408;-4.498;2023-04-24T09:08:25;16.22;57.09
69944;DHT22;57257;48.408;-4.498;2023-04-24T09:10:51;16.14;57.09
69944;DHT22;57257;48.408;-4.498;2023-04-24T09:13:18;16.14;57.32
69944;DHT22;57257;48.408;-4.498;2023-04-24T09:15:44;16.21;57.78
69944;DHT22;57257;48.408;-4.498;2023-04-24T09:18:09;16.29;57.25
69944;DHT22;57257;48.408;-4.498;2023-04-24T09:21:01;16.31;57.19
69944;DHT22;57257;48.408;-4.498;2023-04-24T09:23:31;16.35;56.55
69944;DHT22;57257;48.408;-4.498;2023-04-24T09:25:59;16.35;56.57
69944;DHT22;57257;48.408;-4.498;2023-04-24T09:28:36;16.41;56.63
69944;DHT22;57257;48.408;-4.498;2023-04-24T09:31:07;16.47;56.44
69944;DHT22;57257;48.408;-4.498;2023-04-24T09:33:33;16.48;56.11
69944;DHT22;57257;48.408;-4.498;2023-04-24T09:35:59;16.52;56.36
69944;DHT22;57257;48.408;-4.498;2023-04-24T09:38:53;16.57;56.09
69944;DHT22;57257;48.408;-4.498;2023-04-24T09:41:18;16.48;56.43
69944;DHT22;57257;48.408;-4.498;2023-04-24T09:43:44;16.42;56.81
69944;DHT22;57257;48.408;-4.498;2023-04-24T09:46:10;16.51;57.15
69944;DHT22;57257;48.408;-4.498;2023-04-24T09:48:37;16.52;56.92
69944;DHT22;57257;48.408;-4.498;2023-04-24T09:51:04;16.54;56.84
69944;DHT22;57257;48.408;-4.498;2023-04-24T09:53:32;16.52;57.18
69944;DHT22;57257;48.408;-4.498;2023-04-24T09:56:08;16.57;57.34
69944;DHT22;57257;48.408;-4.498;2023-04-24T09:58:35;16.48;56.64
69944;DHT22;57257;48.408;-4.498;2023-04-24T10:01:00;16.44;56.80
69944;DHT22;57257;48.408;-4.498;2023-04-24T10:03:29;16.45;56.84
69944;DHT22;57257;48.408;-4.498;2023-04-24T10:05:59;16.54;56.65
69944;DHT22;57257;48.408;-4.498;2023-04-24T10:08:25;16.69;56.35
69944;DHT22;57257;48.408;-4.498;2023-04-24T10:10:52;16.92;55.89
69944;DHT22;57257;48.408;-4.498;2023-04-24T10:13:18;17.03;54.42
69944;DHT22;57257;48.408;-4.498;2023-04-24T10:15:44;17.08;54.35
69944;DHT22;57257;48.408;-4.498;2023-04-24T10:18:10;17.13;53.51
69944;DHT22;57257;48.408;-4.498;2023-04-24T10:20:38;17.18;53.53
69944;DHT22;57257;48.408;-4.498;2023-04-24T10:23:04;17.19;53.47
69944;DHT22;57257;48.408;-4.498;2023-04-24T10:25:31;17.29;52.59
69944;DHT22;57257;48.408;-4.498;2023-04-24T10:27:58;17.43;52.46
69944;DHT22;57257;48.408;-4.498;2023-04-24T10:30:26;17.53;52.34
69944;DHT22;57257;48.408;-4.498;2023-04-24T10:32:51;17.59;51.42
69944;DHT22;57257;48.408;-4.498;2023-04-24T10:35:18;17.66;51.19
69944;DHT22;57257;48.408;-4.498;2023-04-24T10:38:04;17.69;51.31
69944;DHT22;57257;48.408;-4.498;2023-04-24T10:40:33;17.69;51.24
69944;DHT22;57257;48.408;-4.498;2023-04-24T10:43:02;17.70;51.52
69944;DHT22;57257;48.408;-4.498;2023-04-24T10:45:28;17.66;51.68
69944;DHT22;57257;48.408;-4.498;2023-04-24T10:48:01;17.64;51.70
69944;DHT22;57257;48.408;-4.498;2023-04-24T10:50:28;17.69;51.83
69944;DHT22;57257;48.408;-4.498;2023-04-24T10:53:05;17.70;51.79
69944;DHT22;57257;48.408;-4.498;2023-04-24T10:56:12;17.73;51.55
69944;DHT22;57257;48.408;-4.498;2023-04-24T10:58:42;17.93;51.30
69944;DHT22;57257;48.408;-4.498;2023-04-24T11:01:37;17.98;51.39
69944;DHT22;57257;48.408;-4.498;2023-04-24T11:04:03;17.97;51.05
69944;DHT22;57257;48.408;-4.498;2023-04-24T11:06:30;17.90;50.80
69944;DHT22;57257;48.408;-4.498;2023-04-24T11:09:08;17.86;50.64
69944;DHT22;57257;48.408;-4.498;2023-04-24T11:11:36;17.87;49.80
69944;DHT22;57257;48.408;-4.498;2023-04-24T11:14:07;18.02;49.29
69944;DHT22;57257;48.408;-4.498;2023-04-24T11:16:53;18.29;49.37
69944;DHT22;57257;48.408;-4.498;2023-04-24T11:19:22;18.56;48.70
69944;DHT22;57257;48.408;-4.498;2023-04-24T11:22:01;18.81;48.69
69944;DHT22;57257;48.408;-4.498;2023-04-24T11:29:59;18.83;48.16
69944;DHT22;57257;48.408;-4.498;2023-04-24T11:35:21;18.86;48.42
69944;DHT22;57257;48.408;-4.498;2023-04-24T11:37:52;18.95;48.18
69944;DHT22;57257;48.408;-4.498;2023-04-24T11:40:20;19.19;48.13
69944;DHT22;57257;48.408;-4.498;2023-04-24T11:42:52;19.41;47.70
69944;DHT22;57257;48.408;-4.498;2023-04-24T11:45:25;19.46;47.02
69944;DHT22;57257;48.408;-4.498;2023-04-24T11:47:51;19.51;46.84
69944;DHT22;57257;48.408;-4.498;2023-04-24T11:50:18;19.57;46.64
69944;DHT22;57257;48.408;-4.498;2023-04-24T11:52:46;19.73;46.10
69944;DHT22;57257;48.408;-4.498;2023-04-24T11:57:44;19.68;46.45
69944;DHT22;57257;48.408;-4.498;2023-04-24T12:00:18;19.63;45.87
69944;DHT22;57257;48.408;-4.498;2023-04-24T12:02:44;19.50;46.12
69944;DHT22;57257;48.408;-4.498;2023-04-24T12:05:26;19.33;46.42
69944;DHT22;57257;48.408;-4.498;2023-04-24T12:07:53;19.28;46.20
69944;DHT22;57257;48.408;-4.498;2023-04-24T12:10:26;19.28;46.11
69944;DHT22;57257;48.408;-4.498;2023-04-24T12:12:53;19.43;46.48
69944;DHT22;57257;48.408;-4.498;2023-04-24T12:15:21;19.49;46.40
69944;DHT22;57257;48.408;-4.498;2023-04-24T12:17:49;19.47;45.35
69944;DHT22;57257;48.408;-4.498;2023-04-24T12:20:16;19.22;44.98
69944;DHT22;57257;48.408;-4.498;2023-04-24T12:22:56;19.04;45.83
69944;DHT22;57257;48.408;-4.498;2023-04-24T12:25:26;18.95;45.49
69944;DHT22;57257;48.408;-4.498;2023-04-24T12:27:54;18.91;45.44
69944;DHT22;57257;48.408;-4.498;2023-04-24T12:30:20;18.85;45.16
69944;DHT22;57257;48.408;-4.498;2023-04-24T12:32:47;18.82;45.64
69944;DHT22;57257;48.408;-4.498;2023-04-24T12:35:18;18.92;45.67
69944;DHT22;57257;48.408;-4.498;2023-04-24T12:37:44;19.02;46.33
69944;DHT22;57257;48.408;-4.498;2023-04-24T12:40:11;19.02;45.93
69944;DHT22;57257;48.408;-4.498;2023-04-24T12:42:48;18.96;46.21
69944;DHT22;57257;48.408;-4.498;2023-04-24T12:45:15;18.79;46.73
69944;DHT22;57257;48.408;-4.498;2023-04-24T12:47:41;18.65;47.71
69944;DHT22;57257;48.408;-4.498;2023-04-24T12:50:09;18.52;47.75
69944;DHT22;57257;48.408;-4.498;2023-04-24T12:52:35;18.42;48.22
69944;DHT22;57257;48.408;-4.498;2023-04-24T12:55:01;18.35;48.95
69944;DHT22;57257;48.408;-4.498;2023-04-24T12:57:28;18.27;49.45
69944;DHT22;57257;48.408;-4.498;2023-04-24T12:59:55;18.14;49.44
69944;DHT22;57257;48.408;-4.498;2023-04-24T13:02:22;18.07;49.90
69944;DHT22;57257;48.408;-4.498;2023-04-24T13:04:48;18.00;50.36
69944;DHT22;57257;48.408;-4.498;2023-04-24T13:07:14;18.02;51.08
69944;DHT22;57257;48.408;-4.498;2023-04-24T13:09:40;18.02;50.71
69944;DHT22;57257;48.408;-4.498;2023-04-24T13:12:06;18.07;50.75
69944;DHT22;57257;48.408;-4.498;2023-04-24T13:14:32;18.24;50.60
69944;DHT22;57257;48.408;-4.498;2023-04-24T13:16:58;18.37;50.24
69944;DHT22;57257;48.408;-4.498;2023-04-24T13:19:25;18.51;49.96
69944;DHT22;57257;48.408;-4.498;2023-04-24T13:21:56;18.63;49.55
69944;DHT22;57257;48.408;-4.498;2023-04-24T13:24:25;18.82;49.36
69944;DHT22;57257;48.408;-4.498;2023-04-24T13:26:51;18.93;47.46
69944;DHT22;57257;48.408;-4.498;2023-04-24T13:29:17;18.93;47.54
69944;DHT22;57257;48.408;-4.498;2023-04-24T13:31:42;19.03;47.30
69944;DHT22;57257;48.408;-4.498;2023-04-24T13:34:08;19.19;46.17
69944;DHT22;57257;48.408;-4.498;2023-04-24T13:36:34;19.33;46.35
69944;DHT22;57257;48.408;-4.498;2023-04-24T13:39:00;19.28;45.53
69944;DHT22;57257;48.408;-4.498;2023-04-24T13:41:26;19.16;44.74
69944;DHT22;57257;48.408;-4.498;2023-04-24T13:43:51;19.09;44.80
69944;DHT22;57257;48.408;-4.498;2023-04-24T13:46:16;19.07;44.16
69944;DHT22;57257;48.408;-4.498;2023-04-24T13:48:42;18.98;42.98
69944;DHT22;57257;48.408;-4.498;2023-04-24T13:51:07;18.88;43.26
69944;DHT22;57257;48.408;-4.498;2023-04-24T13:53:33;18.86;43.42
69944;DHT22;57257;48.408;-4.498;2023-04-24T13:56:01;18.77;43.66
69944;DHT22;57257;48.408;-4.498;2023-04-24T13:58:27;18.76;44.19
69944;DHT22;57257;48.408;-4.498;2023-04-24T14:00:52;18.83;44.63
69944;DHT22;57257;48.408;-4.498;2023-04-24T14:03:18;18.99;45.11
69944;DHT22;57257;48.408;-4.498;2023-04-24T14:05:43;19.20;44.77
69944;DHT22;57257;48.408;-4.498;2023-04-24T14:08:09;19.27;44.60
69944;DHT22;57257;48.408;-4.498;2023-04-24T14:10:34;19.53;44.97
69944;DHT22;57257;48.408;-4.498;2023-04-24T14:13:00;19.81;44.80
69944;DHT22;57257;48.408;-4.498;2023-04-24T14:15:26;19.91;44.36
69944;DHT22;57257;48.408;-4.498;2023-04-24T14:17:51;20.08;44.66
69944;DHT22;57257;48.408;-4.498;2023-04-24T14:20:17;20.29;44.13
69944;DHT22;57257;48.408;-4.498;2023-04-24T14:22:42;20.31;43.86
69944;DHT22;57257;48.408;-4.498;2023-04-24T14:25:08;20.28;43.16
69944;DHT22;57257;48.408;-4.498;2023-04-24T14:27:33;20.08;43.71
69944;DHT22;57257;48.408;-4.498;2023-04-24T14:30:00;19.85;43.55
69944;DHT22;57257;48.408;-4.498;2023-04-24T14:32:25;19.57;43.52
69944;DHT22;57257;48.408;-4.498;2023-04-24T14:34:51;19.27;44.18
69944;DHT22;57257;48.408;-4.498;2023-04-24T14:37:16;19.10;44.77
69944;DHT22;57257;48.408;-4.498;2023-04-24T14:39:41;19.02;45.05
69944;DHT22;57257;48.408;-4.498;2023-04-24T14:42:07;18.95;45.32
69944;DHT22;57257;48.408;-4.498;2023-04-24T14:44:32;18.86;45.55
69944;DHT22;57257;48.408;-4.498;2023-04-24T14:46:59;18.85;45.72
69944;DHT22;57257;48.408;-4.498;2023-04-24T14:49:25;18.69;45.86
69944;DHT22;57257;48.408;-4.498;2023-04-24T14:51:50;18.53;45.92
69944;DHT22;57257;48.408;-4.498;2023-04-24T14:54:16;18.44;46.57
69944;DHT22;57257;48.408;-4.498;2023-04-24T14:56:41;18.44;46.97
69944;DHT22;57257;48.408;-4.498;2023-04-24T14:59:08;18.44;47.00
69944;DHT22;57257;48.408;-4.498;2023-04-24T15:01:34;18.32;47.24
69944;DHT22;57257;48.408;-4.498;2023-04-24T15:03:59;18.31;47.21
69944;DHT22;57257;48.408;-4.498;2023-04-24T15:06:25;18.29;47.03
69944;DHT22;57257;48.408;-4.498;2023-04-24T15:08:50;18.19;46.64
69944;DHT22;57257;48.408;-4.498;2023-04-24T15:11:16;18.09;46.80
69944;DHT22;57257;48.408;-4.498;2023-04-24T15:13:42;17.93;46.18
69944;DHT22;57257;48.408;-4.498;2023-04-24T15:16:10;17.87;46.78
69944;DHT22;57257;48.408;-4.498;2023-04-24T15:18:35;17.83;46.90
69944;DHT22;57257;48.408;-4.498;2023-04-24T15:21:01;18.18;47.12
69944;DHT22;57257;48.408;-4.498;2023-04-24T15:23:26;19.12;45.13